createdAt,value
2023-01-12T00:00:05.434Z,100021.13
2023-01-12T00:02:33.753Z,100033.69
2023-01-12T00:05:01.281Z,100040.88
2023-01-12T00:07:29.258Z,100037.28
2023-01-12T00:09:58.096Z,100049.31
2023-01-12T00:12:25.639Z,100053.63
2023-01-12T00:14:53.190Z,100051.59
2023-01-12T00:17:20.761Z,100041.97
2023-01-12T00:19:48.219Z,100053.53
2023-01-12T00:22:18.358Z,100046.69
2023-01-12T00:24:46.381Z,100052.47
2023-01-12T00:27:16.307Z,100045.63
2023-01-12T00:29:43.957Z,100053.81
2023-01-12T00:32:12.799Z,100033.88
2023-01-12T00:34:40.262Z,100058.72
2023-01-12T00:37:07.761Z,100064.94
2023-01-12T00:39:40.456Z,100045.47
2023-01-12T00:42:26.071Z,100048.16
2023-01-12T00:45:12.089Z,100052.63
2023-01-12T00:47:39.535Z,100061.69
2023-01-12T00:50:07.244Z,100037.28
2023-01-12T00:52:34.775Z,100042.72
2023-01-12T00:55:02.501Z,100029.75
2023-01-12T00:57:29.999Z,100040.28
2023-01-12T01:00:00.207Z,100003.97
2023-01-12T01:02:28.043Z,100031.06
2023-01-12T01:04:55.586Z,100028.00
2023-01-12T01:07:23.108Z,100034.22
2023-01-12T01:09:50.696Z,100030.66
2023-01-12T01:12:18.378Z,100033.81
2023-01-12T01:14:45.900Z,100031.81
2023-01-12T01:17:14.828Z,100027.28
2023-01-12T01:19:43.409Z,100016.59
2023-01-12T01:22:10.965Z,100030.25
2023-01-12T01:24:38.439Z,100026.56
2023-01-12T01:27:06.062Z,100030.16
2023-01-12T01:29:33.534Z,100027.66
2023-01-12T01:32:01.079Z,100009.47
2023-01-12T01:34:30.059Z,99998.56
2023-01-12T01:36:57.566Z,100002.56
2023-01-12T01:39:25.001Z,100005.59
2023-01-12T01:41:52.524Z,99984.09
2023-01-12T01:44:38.258Z,99995.25
2023-01-12T01:47:06.529Z,99986.53
2023-01-12T01:49:37.066Z,99969.81
2023-01-12T01:52:05.109Z,99980.50
2023-01-12T01:54:34.791Z,99974.22
2023-01-12T01:57:02.296Z,99975.19
2023-01-12T01:59:31.013Z,99976.03
2023-01-12T02:01:58.535Z,99964.94
2023-01-12T02:04:26.698Z,99965.47
2023-01-12T02:06:55.752Z,99976.47
2023-01-12T02:09:23.850Z,99962.91
2023-01-12T02:12:08.895Z,99955.69
2023-01-12T02:14:53.712Z,99943.06
2023-01-12T02:17:25.410Z,99957.16
2023-01-12T02:20:03.241Z,99935.31
2023-01-12T02:22:39.844Z,99941.09
2023-01-12T02:25:24.945Z,99930.84
2023-01-12T02:28:05.842Z,99929.34
2023-01-12T02:30:57.033Z,99923.13
2023-01-12T02:33:31.574Z,99920.56
2023-01-12T02:35:59.747Z,99922.94
2023-01-12T02:38:29.122Z,99913.94
2023-01-12T02:40:59.270Z,99907.25
2023-01-12T02:43:26.243Z,99894.94
2023-01-12T02:45:55.070Z,99898.38
2023-01-12T02:48:23.116Z,99890.47
2023-01-12T02:50:52.523Z,99886.41
2023-01-12T02:53:22.046Z,99913.44
2023-01-12T02:55:49.578Z,99880.53
2023-01-12T02:58:17.458Z,99881.91
2023-01-12T03:00:45.065Z,99873.78
2023-01-12T03:03:12.834Z,99875.41
2023-01-12T03:05:40.925Z,99873.91
2023-01-12T03:08:09.801Z,99869.03
2023-01-12T03:10:43.063Z,99866.19
2023-01-12T03:13:11.518Z,99855.00
2023-01-12T03:15:39.508Z,99862.19
2023-01-12T03:18:07.903Z,99841.88
2023-01-12T03:20:36.168Z,99848.53
2023-01-12T03:23:04.192Z,99846.94
2023-01-12T03:25:33.049Z,99846.72
2023-01-12T03:28:00.798Z,99839.47
2023-01-12T03:30:29.630Z,99829.00
2023-01-12T03:32:57.141Z,99829.63
2023-01-12T03:35:26.117Z,99826.03
2023-01-12T03:37:55.074Z,99829.22
2023-01-12T03:40:22.759Z,99824.19
2023-01-12T03:42:52.758Z,99801.41
2023-01-12T03:45:21.975Z,99813.53
2023-01-12T03:47:49.556Z,99793.81
2023-01-12T03:50:17.730Z,99793.38
2023-01-12T03:52:45.824Z,99811.13
2023-01-12T03:55:13.724Z,99783.63
2023-01-12T03:57:41.258Z,99777.44
2023-01-12T04:00:11.174Z,99780.72
2023-01-12T04:02:38.671Z,99786.75
2023-01-12T04:05:06.846Z,99766.41
2023-01-12T04:07:34.363Z,99763.19
2023-01-12T04:10:01.843Z,99769.16
2023-01-12T04:12:29.365Z,99764.00
2023-01-12T04:14:56.890Z,99764.53
2023-01-12T04:17:27.861Z,99766.13
2023-01-12T04:19:55.418Z,99749.13
2023-01-12T04:22:40.397Z,99750.94
2023-01-12T04:25:09.821Z,99732.94
2023-01-12T04:27:37.490Z,99730.41
2023-01-12T04:30:05.483Z,99708.03
2023-01-12T04:32:34.343Z,99721.13
2023-01-12T04:35:01.875Z,99712.69
2023-01-12T04:37:29.432Z,99707.78
2023-01-12T04:39:56.919Z,99690.81
2023-01-12T04:42:42.051Z,99675.66
2023-01-12T04:45:10.182Z,99680.03
2023-01-12T04:47:39.200Z,99671.44
2023-01-12T04:50:07.067Z,99665.72
2023-01-12T04:52:34.616Z,99640.75
2023-01-12T04:55:02.170Z,99644.69
2023-01-12T04:57:29.749Z,99650.38
2023-01-12T04:59:57.284Z,99627.00
2023-01-12T05:02:24.943Z,99634.00
2023-01-12T05:04:53.799Z,99638.03
2023-01-12T05:07:21.587Z,99632.56
2023-01-12T05:10:06.507Z,99622.56
2023-01-12T05:12:33.979Z,99600.22
2023-01-12T05:15:01.527Z,99580.63
2023-01-12T05:17:29.024Z,99577.44
2023-01-12T05:20:00.648Z,99560.44
2023-01-12T05:22:28.399Z,99554.03
2023-01-12T05:24:55.855Z,99539.34
2023-01-12T05:27:23.398Z,99519.19
2023-01-12T05:29:52.761Z,99507.78
2023-01-12T05:32:20.404Z,99489.06
2023-01-12T05:34:47.932Z,99472.50
2023-01-12T05:37:16.818Z,99482.72
2023-01-12T05:39:44.324Z,99486.84
2023-01-12T05:42:29.125Z,99485.72
2023-01-12T05:44:56.672Z,99471.09
2023-01-12T05:47:24.182Z,99458.09
2023-01-12T05:49:51.682Z,99438.66
2023-01-12T05:52:20.553Z,99447.69
2023-01-12T05:54:48.003Z,99451.75
2023-01-12T05:57:15.546Z,99454.06
2023-01-12T05:59:43.045Z,99470.91
2023-01-12T06:02:13.769Z,99443.34
2023-01-12T06:04:41.291Z,99445.16
2023-01-12T06:07:08.804Z,99442.53
2023-01-12T06:09:37.657Z,99443.16
2023-01-12T06:12:23.067Z,99437.88
2023-01-12T06:14:50.599Z,99423.53
2023-01-12T06:17:18.124Z,99421.31
2023-01-12T06:19:45.613Z,99439.78
2023-01-12T06:22:13.082Z,99422.38
2023-01-12T06:24:42.107Z,99432.06
2023-01-12T06:27:09.972Z,99440.63
2023-01-12T06:29:37.410Z,99438.94
2023-01-12T06:32:04.985Z,99437.88
2023-01-12T06:34:35.345Z,99432.97
2023-01-12T06:37:03.078Z,99436.69
2023-01-12T06:39:30.590Z,99453.50
2023-01-12T06:42:17.042Z,99439.41
2023-01-12T06:44:44.558Z,99431.69
2023-01-12T06:47:12.134Z,99456.19
2023-01-12T06:49:39.607Z,99445.28
2023-01-12T06:52:07.499Z,99454.41
2023-01-12T06:54:35.011Z,99443.03
2023-01-12T06:57:03.917Z,99463.19
2023-01-12T06:59:31.420Z,99458.66
2023-01-12T07:01:58.958Z,99452.00
2023-01-12T07:04:26.617Z,99452.31
2023-01-12T07:06:54.740Z,99441.94
2023-01-12T07:09:22.383Z,99444.88
2023-01-12T07:11:49.885Z,99425.63
2023-01-12T07:14:18.692Z,99451.75
2023-01-12T07:16:46.134Z,99444.00
2023-01-12T07:19:13.713Z,99444.53
2023-01-12T07:21:41.178Z,99454.38
2023-01-12T07:24:08.750Z,99451.97
2023-01-12T07:26:36.258Z,99435.19
2023-01-12T07:29:03.850Z,99454.13
2023-01-12T07:31:32.738Z,99450.41
2023-01-12T07:34:00.191Z,99442.88
2023-01-12T07:36:27.878Z,99454.34
2023-01-12T07:38:55.418Z,99459.16
2023-01-12T07:41:40.605Z,99460.25
2023-01-12T07:44:08.070Z,99468.69
2023-01-12T07:46:37.419Z,99476.63
2023-01-12T07:49:04.936Z,99467.13
2023-01-12T07:51:32.712Z,99477.19
2023-01-12T07:54:00.346Z,99481.72
2023-01-12T07:56:27.826Z,99464.38
2023-01-12T07:58:55.337Z,99485.78
2023-01-12T08:01:22.958Z,99468.91
2023-01-12T08:03:51.829Z,99474.16
2023-01-12T08:06:19.394Z,99478.88
2023-01-12T08:08:46.893Z,99466.94
2023-01-12T08:11:14.748Z,99476.97
2023-01-12T08:13:42.262Z,99481.72
2023-01-12T08:16:10.427Z,99470.13
2023-01-12T08:18:38.659Z,99483.03
2023-01-12T08:21:08.407Z,99486.88
2023-01-12T08:23:37.255Z,99477.41
2023-01-12T08:26:06.091Z,99483.69
2023-01-12T08:28:34.705Z,99485.50
2023-01-12T08:31:02.230Z,99493.56
2023-01-12T08:33:29.789Z,99501.44
2023-01-12T08:35:57.283Z,99491.53
2023-01-12T08:38:26.167Z,99495.63
2023-01-12T08:41:10.997Z,99503.66
2023-01-12T08:43:55.872Z,99507.28
2023-01-12T08:46:23.380Z,99499.63
2023-01-12T08:48:50.926Z,99519.16
2023-01-12T08:51:18.446Z,99521.53
2023-01-12T08:53:47.540Z,99528.22
2023-01-12T08:56:15.009Z,99520.97
2023-01-12T08:58:43.018Z,99524.94
2023-01-12T09:01:10.829Z,99526.00
2023-01-12T09:03:38.820Z,99510.75
2023-01-12T09:06:09.792Z,99537.91
2023-01-12T09:08:37.329Z,99543.59
2023-01-12T09:11:06.500Z,99536.63
2023-01-12T09:13:34.225Z,99540.81
2023-01-12T09:16:12.343Z,99535.88
2023-01-12T09:18:40.742Z,99547.56
2023-01-12T09:21:09.067Z,99543.53
2023-01-12T09:23:36.726Z,99558.41
2023-01-12T09:26:06.710Z,99553.31
2023-01-12T09:28:34.326Z,99552.38
2023-01-12T09:31:02.574Z,99571.25
2023-01-12T09:33:30.414Z,99566.16
2023-01-12T09:36:01.190Z,99569.16
2023-01-12T09:38:28.678Z,99572.44
2023-01-12T09:40:57.027Z,99577.66
2023-01-12T09:43:43.114Z,99574.00
2023-01-12T09:46:34.158Z,99585.84
2023-01-12T09:49:01.657Z,99570.00
2023-01-12T09:51:29.993Z,99599.16
2023-01-12T09:53:57.459Z,99582.75
2023-01-12T09:56:27.478Z,99595.53
2023-01-12T09:58:59.135Z,99582.75
2023-01-12T10:01:29.650Z,99589.72
2023-01-12T10:03:58.624Z,99600.31
2023-01-12T10:06:26.183Z,99615.84
2023-01-12T10:08:54.563Z,99614.16
2023-01-12T10:11:22.909Z,99616.44
2023-01-12T10:14:02.422Z,99605.00
2023-01-12T10:16:31.942Z,99624.25
2023-01-12T10:19:00.282Z,99628.69
2023-01-12T10:21:27.848Z,99612.31
2023-01-12T10:23:55.486Z,99623.75
2023-01-12T10:26:23.490Z,99624.56
2023-01-12T10:28:52.378Z,99629.63
2023-01-12T10:31:22.711Z,99637.69
2023-01-12T10:34:03.206Z,99626.56
2023-01-12T10:36:30.758Z,99632.94
2023-01-12T10:39:00.856Z,99637.41
2023-01-12T10:41:28.668Z,99635.84
2023-01-12T10:44:07.005Z,99648.97
2023-01-12T10:46:36.109Z,99641.09
2023-01-12T10:49:16.750Z,99640.94
2023-01-12T10:51:50.044Z,99652.63
2023-01-12T10:54:18.139Z,99634.19
2023-01-12T10:56:46.705Z,99660.09
2023-01-12T10:59:17.069Z,99659.44
2023-01-12T11:01:47.194Z,99659.38
2023-01-12T11:04:15.939Z,99643.06
2023-01-12T11:06:44.071Z,99660.34
2023-01-12T11:09:18.522Z,99652.13
2023-01-12T11:11:46.086Z,99661.31
2023-01-12T11:14:24.097Z,99655.72
2023-01-12T11:16:53.270Z,99666.97
2023-01-12T11:19:21.595Z,99650.34
2023-01-12T11:21:50.249Z,99669.97
2023-01-12T11:24:24.243Z,99658.78
2023-01-12T11:26:52.576Z,99657.88
2023-01-12T11:29:32.852Z,99657.78
2023-01-12T11:32:02.527Z,99645.19
2023-01-12T11:34:30.668Z,99653.66
2023-01-12T11:37:02.236Z,99650.00
2023-01-12T11:39:29.759Z,99662.59
2023-01-12T11:42:15.381Z,99651.41
2023-01-12T11:44:44.614Z,99659.22
2023-01-12T11:47:14.304Z,99638.47
2023-01-12T11:49:43.615Z,99658.50
2023-01-12T11:52:11.253Z,99658.03
2023-01-12T11:54:38.975Z,99653.56
2023-01-12T11:57:25.351Z,99657.53
2023-01-12T11:59:56.953Z,99652.75
2023-01-12T12:02:32.966Z,99642.50
2023-01-12T12:05:03.714Z,99663.06
2023-01-12T12:07:34.981Z,99649.78
2023-01-12T12:10:05.962Z,99655.38
2023-01-12T12:12:36.977Z,99650.81
2023-01-12T12:15:15.174Z,99640.38
2023-01-12T12:17:46.373Z,99660.19
2023-01-12T12:20:16.138Z,99661.84
2023-01-12T12:22:48.219Z,99657.66
2023-01-12T12:25:21.286Z,99653.47
2023-01-12T12:27:56.209Z,99647.09
2023-01-12T12:30:26.706Z,99651.78
2023-01-12T12:32:56.985Z,99641.22
2023-01-12T12:35:27.741Z,99654.66
2023-01-12T12:37:58.045Z,99651.03
2023-01-12T12:40:30.081Z,99665.22
2023-01-12T12:43:18.756Z,99652.25
2023-01-12T12:45:48.769Z,99652.63
2023-01-12T12:48:19.271Z,99644.94
2023-01-12T12:50:48.179Z,99639.28
2023-01-12T12:53:17.794Z,99640.38
2023-01-12T12:55:45.500Z,99640.69
2023-01-12T12:58:29.311Z,99633.38
2023-01-12T13:00:56.940Z,99618.53
2023-01-12T13:03:42.404Z,99633.28
2023-01-12T13:06:16.240Z,99621.03
2023-01-12T13:08:43.723Z,99623.66
2023-01-12T13:11:11.235Z,99620.06
2023-01-12T13:13:40.025Z,99625.81
2023-01-12T13:16:22.386Z,99632.16
2023-01-12T13:19:04.666Z,99621.50
2023-01-12T13:21:33.851Z,99615.41
2023-01-12T13:24:24.809Z,99622.69
2023-01-12T13:26:53.968Z,99621.84
2023-01-12T13:29:40.584Z,99617.28
2023-01-12T13:32:26.648Z,99610.69
2023-01-12T13:34:54.206Z,99615.47
2023-01-12T13:37:25.002Z,99612.22
2023-01-12T13:39:53.571Z,99606.13
2023-01-12T13:42:38.652Z,99612.16
2023-01-12T13:45:10.294Z,99604.63
2023-01-12T13:47:37.862Z,99606.09
2023-01-12T13:50:05.631Z,99603.88
2023-01-12T13:52:35.725Z,99600.31
2023-01-12T13:55:03.305Z,99604.34
2023-01-12T13:57:31.725Z,99605.66
2023-01-12T13:59:59.931Z,99598.56
2023-01-12T14:02:28.090Z,99600.31
2023-01-12T14:04:58.433Z,99591.38
2023-01-12T14:07:29.322Z,99605.22
2023-01-12T14:10:01.770Z,99603.00
2023-01-12T14:12:36.509Z,99598.19
2023-01-12T14:15:38.997Z,99591.81
2023-01-12T14:18:06.960Z,99591.03
2023-01-12T14:20:41.408Z,99598.09
2023-01-12T14:23:22.799Z,99596.00
2023-01-12T14:26:05.217Z,99598.47
2023-01-12T14:28:34.403Z,99595.28
2023-01-12T14:31:01.961Z,99575.16
2023-01-12T14:33:30.675Z,99595.81
2023-01-12T14:35:58.830Z,99583.31
2023-01-12T14:38:26.798Z,99578.25
2023-01-12T14:40:59.546Z,99580.00
2023-01-12T14:43:44.532Z,99581.03
2023-01-12T14:46:27.126Z,99569.91
2023-01-12T14:48:55.528Z,99569.16
2023-01-12T14:51:23.943Z,99580.22
2023-01-12T14:53:56.472Z,99565.94
2023-01-12T14:56:24.268Z,99567.50
2023-01-12T14:58:51.829Z,99548.06
2023-01-12T15:01:31.976Z,99558.34
2023-01-12T15:03:59.513Z,99562.72
2023-01-12T15:06:27.080Z,99557.91
2023-01-12T15:08:55.709Z,99564.22
2023-01-12T15:11:29.916Z,99546.84
2023-01-12T15:13:58.115Z,99543.50
2023-01-12T15:16:42.903Z,99544.22
2023-01-12T15:19:29.637Z,99551.53
2023-01-12T15:22:14.945Z,99547.81
2023-01-12T15:25:02.045Z,99550.69
2023-01-12T15:27:29.795Z,99548.75
2023-01-12T15:29:57.302Z,99556.69
2023-01-12T15:32:38.025Z,99551.16
2023-01-12T15:35:16.522Z,99543.00
2023-01-12T15:37:44.038Z,99541.09
2023-01-12T15:40:13.666Z,99544.22
2023-01-12T15:42:41.182Z,99538.44
2023-01-12T15:45:14.170Z,99555.25
2023-01-12T15:47:41.717Z,99540.59
2023-01-12T15:50:09.566Z,99550.09
2023-01-12T15:52:38.368Z,99542.75
2023-01-12T15:55:06.751Z,99545.63
2023-01-12T15:57:35.162Z,99546.34
2023-01-12T16:00:02.827Z,99549.34
2023-01-12T16:02:34.838Z,99548.97
2023-01-12T16:05:02.525Z,99535.81
2023-01-12T16:07:30.031Z,99557.19
2023-01-12T16:09:58.939Z,99540.13
2023-01-12T16:12:26.530Z,99529.31
2023-01-12T16:14:54.113Z,99511.69
2023-01-12T16:17:22.171Z,99526.91
2023-01-12T16:19:49.738Z,99530.06
2023-01-12T16:22:17.940Z,99530.16
2023-01-12T16:24:45.491Z,99532.69
2023-01-12T16:27:14.437Z,99541.94
2023-01-12T16:29:42.007Z,99517.56
2023-01-12T16:32:09.669Z,99525.63
2023-01-12T16:34:37.480Z,99530.28
2023-01-12T16:37:05.549Z,99528.38
2023-01-12T16:39:33.094Z,99512.88
2023-01-12T16:42:03.580Z,99543.22
2023-01-12T16:44:33.029Z,99525.00
2023-01-12T16:47:00.577Z,99511.31
2023-01-12T16:49:28.235Z,99518.53
2023-01-12T16:51:56.709Z,99515.34
2023-01-12T16:54:24.195Z,99519.25
2023-01-12T16:56:52.183Z,99519.47
2023-01-12T16:59:19.716Z,99522.13
2023-01-12T17:01:51.676Z,99519.38
2023-01-12T17:04:20.111Z,99524.28
2023-01-12T17:06:48.082Z,99519.38
2023-01-12T17:09:15.896Z,99522.59
2023-01-12T17:11:44.068Z,99511.44
2023-01-12T17:14:24.269Z,99505.09
2023-01-12T17:16:54.686Z,99511.56
2023-01-12T17:19:24.762Z,99511.31
2023-01-12T17:21:54.164Z,99520.47
2023-01-12T17:24:22.100Z,99529.59
2023-01-12T17:26:51.178Z,99507.69
2023-01-12T17:29:19.044Z,99519.25
2023-01-12T17:31:46.850Z,99520.56
2023-01-12T17:34:16.276Z,99518.13
2023-01-12T17:36:44.187Z,99524.03
2023-01-12T17:39:11.690Z,99518.53
2023-01-12T17:41:56.978Z,99532.66
2023-01-12T17:44:24.487Z,99520.69
2023-01-12T17:46:52.319Z,99526.22
2023-01-12T17:49:21.296Z,99525.38
2023-01-12T17:51:48.869Z,99512.53
2023-01-12T17:54:16.793Z,99502.91
2023-01-12T17:56:44.631Z,99518.53
2023-01-12T17:59:14.700Z,99509.78
2023-01-12T18:01:42.896Z,99530.03
2023-01-12T18:04:10.515Z,99540.38
2023-01-12T18:06:39.451Z,99547.94
2023-01-12T18:09:07.103Z,99537.13
2023-01-12T18:11:36.015Z,99520.22
2023-01-12T18:14:03.608Z,99516.75
2023-01-12T18:16:31.094Z,99493.81
2023-01-12T18:18:58.593Z,99480.56
2023-01-12T18:21:27.093Z,99470.50
2023-01-12T18:23:57.145Z,99485.66
2023-01-12T18:26:25.937Z,99520.75
2023-01-12T18:28:53.567Z,99491.53
2023-01-12T18:31:22.035Z,99520.06
2023-01-12T18:33:49.723Z,99500.53
2023-01-12T18:36:17.997Z,99527.41
2023-01-12T18:38:45.661Z,99533.88
2023-01-12T18:41:32.051Z,99546.00
2023-01-12T18:43:59.994Z,99548.56
2023-01-12T18:46:50.656Z,99535.56
2023-01-12T18:49:20.007Z,99547.34
2023-01-12T18:52:05.030Z,99523.44
2023-01-12T18:54:32.813Z,99547.91
2023-01-12T18:57:01.616Z,99533.09
2023-01-12T18:59:30.041Z,99544.69
2023-01-12T19:01:57.546Z,99547.75
2023-01-12T19:04:37.608Z,99546.59
2023-01-12T19:07:05.170Z,99545.34
2023-01-12T19:09:34.562Z,99529.81
2023-01-12T19:12:03.683Z,99540.81
2023-01-12T19:14:48.683Z,99544.75
2023-01-12T19:17:28.037Z,99527.88
2023-01-12T19:19:55.597Z,99527.63
2023-01-12T19:22:40.708Z,99526.41
2023-01-12T19:25:26.163Z,99519.41
2023-01-12T19:28:12.389Z,99515.66
2023-01-12T19:30:39.962Z,99498.81
2023-01-12T19:33:08.237Z,99500.25
2023-01-12T19:35:36.836Z,99506.41
2023-01-12T19:38:04.349Z,99499.81
2023-01-12T19:40:35.561Z,99497.91
2023-01-12T19:43:14.533Z,99512.28
2023-01-12T19:45:42.698Z,99512.97
2023-01-12T19:48:10.476Z,99511.28
2023-01-12T19:50:38.440Z,99516.25
2023-01-12T19:53:06.008Z,99507.03
2023-01-12T19:55:33.967Z,99503.72
2023-01-12T19:58:01.536Z,99512.25
2023-01-12T20:00:30.455Z,99516.66
2023-01-12T20:02:58.037Z,99506.78
2023-01-12T20:05:25.575Z,99516.00
2023-01-12T20:07:53.414Z,99523.69
2023-01-12T20:10:21.188Z,99498.72
2023-01-12T20:12:49.028Z,99501.50
2023-01-12T20:15:18.099Z,99499.56
2023-01-12T20:17:46.945Z,99504.13
2023-01-12T20:20:14.535Z,99517.69
2023-01-12T20:22:42.142Z,99491.28
2023-01-12T20:25:09.973Z,99509.16
2023-01-12T20:27:37.951Z,99491.41
2023-01-12T20:30:05.967Z,99497.53
2023-01-12T20:32:35.665Z,99506.97
2023-01-12T20:35:04.771Z,99483.00
2023-01-12T20:37:33.456Z,99491.06
2023-01-12T20:40:01.064Z,99502.97
2023-01-12T20:42:31.484Z,99509.34
2023-01-12T20:44:59.454Z,99484.09
2023-01-12T20:47:27.278Z,99461.31
2023-01-12T20:49:54.825Z,99489.00
2023-01-12T20:52:23.777Z,99494.16
2023-01-12T20:54:51.416Z,99490.47
2023-01-12T20:57:19.225Z,99485.44
2023-01-12T20:59:47.143Z,99472.66
2023-01-12T21:02:15.686Z,99477.94
2023-01-12T21:04:43.168Z,99472.50
2023-01-12T21:07:10.672Z,99476.56
2023-01-12T21:09:39.589Z,99471.78
2023-01-12T21:12:07.405Z,99455.75
2023-01-12T21:14:35.104Z,99456.75
2023-01-12T21:17:03.172Z,99470.13
2023-01-12T21:19:30.695Z,99453.41
2023-01-12T21:21:58.183Z,99459.56
2023-01-12T21:24:26.449Z,99457.94
2023-01-12T21:26:56.635Z,99456.00
2023-01-12T21:29:25.326Z,99464.84
2023-01-12T21:31:52.895Z,99451.03
2023-01-12T21:34:20.467Z,99459.59
2023-01-12T21:36:48.634Z,99457.06
2023-01-12T21:39:16.164Z,99458.44
2023-01-12T21:41:57.580Z,99465.03
2023-01-12T21:44:27.591Z,99452.06
2023-01-12T21:46:55.634Z,99464.88
2023-01-12T21:49:23.126Z,99488.63
2023-01-12T21:51:50.597Z,99464.91
2023-01-12T21:54:18.231Z,99474.84
2023-01-12T21:56:45.695Z,99450.59
2023-01-12T21:59:13.351Z,99451.50
2023-01-12T22:01:42.408Z,99470.75
2023-01-12T22:04:10.065Z,99468.84
2023-01-12T22:06:37.644Z,99456.78
2023-01-12T22:09:05.099Z,99464.41
2023-01-12T22:11:32.614Z,99447.81
2023-01-12T22:14:00.157Z,99452.91
2023-01-12T22:16:27.717Z,99442.09
2023-01-12T22:18:56.642Z,99443.56
2023-01-12T22:21:24.159Z,99462.41
2023-01-12T22:23:51.711Z,99459.53
2023-01-12T22:26:19.560Z,99448.47
2023-01-12T22:28:48.020Z,99466.13
2023-01-12T22:31:16.135Z,99437.28
2023-01-12T22:33:44.814Z,99447.06
2023-01-12T22:36:13.742Z,99448.22
2023-01-12T22:38:42.084Z,99425.88
2023-01-12T22:41:10.070Z,99438.00
2023-01-12T22:43:40.704Z,99456.56
2023-01-12T22:46:14.400Z,99459.41
2023-01-12T22:48:41.972Z,99458.78
2023-01-12T22:51:09.648Z,99438.91
2023-01-12T22:53:38.627Z,99452.16
2023-01-12T22:56:06.554Z,99454.25
2023-01-12T22:58:34.121Z,99452.53
2023-01-12T23:01:04.767Z,99457.06
2023-01-12T23:03:32.558Z,99473.25
2023-01-12T23:06:00.173Z,99470.78
2023-01-12T23:08:27.840Z,99473.41
2023-01-12T23:11:03.729Z,99480.16
2023-01-12T23:13:31.232Z,99474.47
2023-01-12T23:15:58.696Z,99475.16
2023-01-12T23:18:28.884Z,99473.56
2023-01-12T23:21:01.315Z,99487.63
2023-01-12T23:23:30.472Z,99486.09
2023-01-12T23:26:03.402Z,99510.00
2023-01-12T23:28:31.156Z,99489.41
2023-01-12T23:31:05.241Z,99498.81
2023-01-12T23:33:32.745Z,99486.88
2023-01-12T23:36:02.696Z,99501.88
2023-01-12T23:38:30.201Z,99496.19
2023-01-12T23:40:57.669Z,99476.47
2023-01-12T23:43:27.717Z,99488.56
2023-01-12T23:45:55.273Z,99480.09
2023-01-12T23:48:23.770Z,99487.72
2023-01-12T23:50:51.937Z,99480.88
2023-01-12T23:53:19.388Z,99488.28
2023-01-12T23:55:46.853Z,99474.41
2023-01-12T23:58:14.335Z,99480.44
